Bainville, MT (59212)

10:15 AM MDT on October 02, 2014 (GMT -0600)
MesoWest US-2 @Stateline US2 MP 667.1 MT US MT DOT | Change Station
CLOSE
Current Station
Personal Weather Station
Location: Bainville, MT
Elevation: 2100 ft
Nearby Weather Stations

Elev 2100 ft 48.14 °N, 104.05 °W | Updated 28 minutes ago

Partly Cloudy
Partly Cloudy
44 °F
Feels Like 37 °F
N
16
Wind Variable Wind from SSW
Gusts 21.0 mph

Today
High -- | Low -- °F
--% Chance of Precip.
Yesterday
High -- | Low -- °F
Precip. -- in
6:57 AM 6:33 PM
First Quarter, 60% visible
Pressure 29.89 in
Visibility 10.0 miles
Clouds Mostly Cloudy 1400 ft
Windchill 37 °F
Dew Point 40 °F
Humidity 88%
Rainfall 0.00 in
Snow Depth 0 in , 1 in , 1 in
UV 1 out of 12
Pollen 2.70 out of 12
Air Quality Not available.
Flu Activity Not available.
METAR KISN 021552Z AUTO 30010KT 10SM BKN014 08/04 A2986 RMK AO2 PK WND 30027/1529 SLP120 T00830044

More Conditions Fewer Conditions

Pressure 29.89 in
Visibility 10.0 miles
Clouds Mostly Cloudy 1400 ft
Windchill 37 °F
Dew Point 40 °F
Humidity 88%
Rainfall 0.00 in
Snow Depth 0 in , 1 in , 1 in
UV 1 out of 12
Pollen 2.70 out of 12
Air Quality Not available.
Flu Activity Not available.
METAR KISN 021552Z AUTO 30010KT 10SM BKN014 08/04 A2986 RMK AO2 PK WND 30027/1529 SLP120 T00830044

More Conditions Fewer Conditions

10-Day Weather Forecast

Almanac

Astronomy

Oct. 02, 2014 Rise Set
Actual Time 6:57 AM MDT 6:33 PM MDT
Civil Twilight 6:26 AM MDT 7:04 PM MDT
Nautical Twilight 5:50 AM MDT 7:40 PM MDT
Astronomical Twilight 5:13 AM MDT 8:17 PM MDT
Moon 3:05 PM MDT No Moon Set
Length of Visible Light 12h 38m
Length of Day
11h 36m
Tomorrow will be 3m 27s shorter.
First Quarter, 60% of the Moon is Illuminated
Today
First Quarter
Oct 8
Full
Oct 15
Last Quarter
Oct 23
New
Oct 30
First Quarter

Today's Extremes

State Highs State Lows

Community

WunderPhotos

Upload Photos

1,758,290 photos uploaded!

WunderBlogs® & News

Nearby

Snow Depth

Station Depth Elevation
Moss Peak 0 in 6780 ft
Grave Creek 1 in 4300 ft
Carrot Basin 1 in 9000 ft
Porcupine 0 in 6500 ft
Daisy Peak 0 in 7600 ft

Earthquake Activity

City Distance Mag. Time & Date
No recent earthquake activity has been reported nearby.
Minimum magnitude displayed is 2.5.

Coastal Water Temperatures

Place Temperature
No Stations Reporting

Nearby Weather Stations